createdAt,value
2019-05-23T00:01:23.064Z,1281.57
2019-05-23T00:03:56.208Z,1223.37
2019-05-23T00:06:28.719Z,1149.70
2019-05-23T00:09:00.717Z,1220.90
2019-05-23T00:11:33.434Z,1249.60
2019-05-23T00:14:05.911Z,1211.43
2019-05-23T00:16:35.036Z,1219.57
2019-05-23T00:19:05.427Z,1238.77
2019-05-23T00:21:36.442Z,1231.60
2019-05-23T00:24:06.347Z,1236.83
2019-05-23T00:26:36.029Z,1254.90
2019-05-23T00:29:10.449Z,1234.47
2019-05-23T00:31:40.515Z,1261.30
2019-05-23T00:34:10.844Z,1205.10
2019-05-23T00:36:39.884Z,1236.50
2019-05-23T00:39:09.358Z,1185.63
2019-05-23T00:41:40.084Z,1305.83
2019-05-23T00:44:10.149Z,1243.07
2019-05-23T00:46:39.982Z,1220.27
2019-05-23T00:49:09.488Z,1280.00
2019-05-23T00:51:39.901Z,1197.90
2019-05-23T00:54:09.029Z,1279.57
2019-05-23T00:56:38.538Z,1200.50
2019-05-23T00:59:08.133Z,1237.37
2019-05-23T01:01:38.149Z,1223.03
2019-05-23T01:04:07.296Z,1291.60
2019-05-23T01:06:36.355Z,1272.63
2019-05-23T01:09:07.979Z,1271.13
2019-05-23T01:11:37.401Z,1236.70
2019-05-23T01:14:08.355Z,1197.67
2019-05-23T01:16:37.451Z,1268.53
2019-05-23T01:19:07.300Z,1293.87
2019-05-23T01:21:38.023Z,1266.43
2019-05-23T01:24:08.794Z,1361.57
2019-05-23T01:26:38.331Z,1287.07
2019-05-23T01:29:07.537Z,1245.27
2019-05-23T01:31:38.242Z,1263.77
2019-05-23T01:34:09.193Z,1259.67
2019-05-23T01:36:39.518Z,1232.63
2019-05-23T01:39:10.156Z,1326.63
2019-05-23T01:41:39.750Z,1312.73
2019-05-23T01:44:11.317Z,1382.87
2019-05-23T01:46:41.056Z,1308.33
2019-05-23T01:49:11.785Z,1316.97
2019-05-23T01:51:40.913Z,1251.70
2019-05-23T01:54:11.295Z,1346.90
2019-05-23T01:56:41.174Z,1297.07
2019-05-23T01:59:10.516Z,1311.07
2019-05-23T02:01:39.644Z,1361.23
2019-05-23T02:04:08.685Z,1334.73
2019-05-23T02:06:38.400Z,1346.57
2019-05-23T02:09:09.189Z,1179.87
2019-05-23T02:11:38.936Z,1321.83
2019-05-23T02:14:08.611Z,1262.07
2019-05-23T02:16:38.956Z,1381.77
2019-05-23T02:19:08.192Z,1253.60
2019-05-23T02:21:37.985Z,1324.77
2019-05-23T02:24:08.611Z,1363.60
2019-05-23T02:26:38.408Z,1335.97
2019-05-23T02:29:07.776Z,1245.63
2019-05-23T02:31:38.365Z,1346.53
2019-05-23T02:34:08.480Z,1414.87
2019-05-23T02:36:39.106Z,1379.13
2019-05-23T02:39:10.499Z,1413.33
2019-05-23T02:41:41.228Z,1391.50
2019-05-23T02:44:12.835Z,1432.63
2019-05-23T02:46:44.287Z,1347.80
2019-05-23T02:49:13.950Z,1436.93
2019-05-23T02:51:43.480Z,1548.50
2019-05-23T02:54:13.993Z,1568.20
2019-05-23T02:56:43.888Z,1440.13
2019-05-23T02:59:15.537Z,1499.33
2019-05-23T03:01:47.802Z,1456.43
2019-05-23T03:04:20.188Z,1577.70
2019-05-23T03:06:51.863Z,1618.43
2019-05-23T03:09:26.370Z,1649.63
2019-05-23T03:11:56.975Z,1612.27
2019-05-23T03:14:26.988Z,1694.77
2019-05-23T03:16:58.879Z,1632.37
2019-05-23T03:19:31.314Z,1762.87
2019-05-23T03:22:03.265Z,1674.80
2019-05-23T03:24:34.246Z,1781.33
2019-05-23T03:27:05.638Z,1710.23
2019-05-23T03:29:35.549Z,1601.20
2019-05-23T03:32:07.019Z,1748.87
2019-05-23T03:34:37.825Z,1692.87
2019-05-23T03:37:07.912Z,1609.97
2019-05-23T03:39:37.079Z,1702.37
2019-05-23T03:42:08.743Z,1685.37
2019-05-23T03:44:38.927Z,1664.20
2019-05-23T03:47:09.799Z,1721.40
2019-05-23T03:49:39.189Z,1597.97
2019-05-23T03:52:10.320Z,1669.03
2019-05-23T03:54:39.950Z,1530.57
2019-05-23T03:57:11.494Z,1588.90
2019-05-23T03:59:42.128Z,1452.63
2019-05-23T04:02:12.981Z,1418.57
2019-05-23T04:04:42.660Z,1351.93
2019-05-23T04:07:13.687Z,1291.00
2019-05-23T04:09:43.545Z,1383.47
2019-05-23T04:12:12.699Z,1286.37
2019-05-23T04:14:42.160Z,1355.03
2019-05-23T04:17:11.528Z,1223.00
2019-05-23T04:19:41.225Z,1175.23
2019-05-23T04:22:10.341Z,1106.40
2019-05-23T04:24:39.450Z,1001.77
2019-05-23T04:27:08.577Z,983.80
2019-05-23T04:29:39.212Z,954.47
2019-05-23T04:32:09.654Z,958.30
2019-05-23T04:34:39.889Z,1001.03
2019-05-23T04:37:08.967Z,1043.03
2019-05-23T04:39:38.270Z,1036.67
2019-05-23T04:42:07.715Z,1033.80
2019-05-23T04:44:36.960Z,1091.40
2019-05-23T04:47:06.687Z,1067.63
2019-05-23T04:49:35.805Z,1134.93
2019-05-23T04:52:04.987Z,1095.87
2019-05-23T04:54:34.241Z,1190.10
2019-05-23T04:57:04.321Z,1174.33
2019-05-23T04:59:33.363Z,1222.37
2019-05-23T05:02:02.721Z,1174.95
2019-05-23T05:04:31.826Z,1225.25
2019-05-23T05:07:01.276Z,1205.98
2019-05-23T05:09:32.468Z,1206.15
2019-05-23T05:12:02.068Z,1253.38
2019-05-23T05:14:32.587Z,1210.73
2019-05-23T05:17:02.093Z,1152.35
2019-05-23T05:19:31.228Z,1161.70
2019-05-23T05:22:00.267Z,1173.25
2019-05-23T05:24:30.027Z,1085.78
2019-05-23T05:26:59.719Z,1150.73
2019-05-23T05:29:29.086Z,1132.13
2019-05-23T05:31:58.243Z,1144.30
2019-05-23T05:34:27.438Z,1143.55
2019-05-23T05:36:56.598Z,1163.65
2019-05-23T05:39:25.711Z,1141.70
2019-05-23T05:41:55.070Z,1141.22
2019-05-23T05:44:24.287Z,1137.28
2019-05-23T05:46:54.220Z,1125.33
2019-05-23T05:49:24.790Z,1119.97
2019-05-23T05:51:54.332Z,1191.80
2019-05-23T05:54:24.490Z,1158.83
2019-05-23T05:56:53.768Z,1111.55
2019-05-23T05:59:23.798Z,1104.60
2019-05-23T06:01:56.508Z,1076.28
2019-05-23T06:04:25.785Z,1062.48
2019-05-23T06:06:56.496Z,1098.08
2019-05-23T06:09:27.167Z,1040.28
2019-05-23T06:11:56.481Z,1037.95
2019-05-23T06:14:25.859Z,1051.70
2019-05-23T06:16:55.892Z,1034.25
2019-05-23T06:19:25.170Z,1048.00
2019-05-23T06:21:54.259Z,1024.03
2019-05-23T06:24:42.941Z,988.92
2019-05-23T06:26:54.745Z,989.55
2019-05-23T06:29:24.611Z,960.58
2019-05-23T06:31:54.288Z,899.47
2019-05-23T06:34:23.879Z,981.50
2019-05-23T06:36:53.888Z,931.10
2019-05-23T06:39:23.578Z,938.52
2019-05-23T06:41:52.749Z,887.67
2019-05-23T06:44:22.366Z,852.73
2019-05-23T06:46:51.419Z,873.78
2019-05-23T06:49:20.546Z,885.65
2019-05-23T06:51:49.750Z,886.08
2019-05-23T06:54:18.780Z,915.05
2019-05-23T06:56:48.321Z,884.70
2019-05-23T06:59:17.622Z,895.52
2019-05-23T07:01:46.666Z,910.73
2019-05-23T07:04:15.981Z,910.50
2019-05-23T07:06:45.115Z,918.92
2019-05-23T07:09:16.311Z,893.97
2019-05-23T07:11:45.843Z,914.50
2019-05-23T07:14:15.345Z,877.77
2019-05-23T07:16:44.404Z,901.52
2019-05-23T07:19:14.828Z,903.12
2019-05-23T07:21:43.887Z,896.72
2019-05-23T07:24:12.945Z,910.52
2019-05-23T07:26:42.214Z,884.13
2019-05-23T07:29:12.027Z,862.15
2019-05-23T07:31:41.092Z,893.73
2019-05-23T07:34:10.188Z,894.28
2019-05-23T07:36:39.958Z,927.90
2019-05-23T07:39:11.493Z,922.57
2019-05-23T07:41:40.295Z,979.80
2019-05-23T07:44:09.852Z,925.83
2019-05-23T07:46:39.514Z,963.52
2019-05-23T07:49:08.831Z,989.40
2019-05-23T07:51:37.889Z,1013.83
2019-05-23T07:54:08.628Z,975.10
2019-05-23T07:56:39.361Z,952.33
2019-05-23T07:59:08.378Z,943.35
2019-05-23T08:01:39.683Z,993.17
2019-05-23T08:04:20.426Z,1007.40
2019-05-23T08:06:39.902Z,993.82
2019-05-23T08:09:09.581Z,932.05
2019-05-23T08:11:39.605Z,957.53
2019-05-23T08:14:11.904Z,939.90
2019-05-23T08:16:39.628Z,909.17
2019-05-23T08:19:09.055Z,950.45
2019-05-23T08:21:38.264Z,915.35
2019-05-23T08:24:08.219Z,977.00
2019-05-23T08:26:37.475Z,1022.65
2019-05-23T08:29:25.582Z,980.90
2019-05-23T08:31:37.733Z,978.63
2019-05-23T08:34:40.507Z,928.60
2019-05-23T08:36:58.346Z,1019.87
2019-05-23T08:39:27.714Z,949.38
2019-05-23T08:41:57.095Z,977.95
2019-05-23T08:44:45.449Z,990.00
2019-05-23T08:47:15.258Z,973.47
2019-05-23T08:49:45.509Z,944.43
2019-05-23T08:52:14.950Z,954.72
2019-05-23T08:54:44.361Z,952.30
2019-05-23T08:57:14.779Z,959.83
2019-05-23T08:59:43.852Z,934.95
2019-05-23T09:02:13.240Z,933.53
2019-05-23T09:05:02.232Z,906.63
2019-05-23T09:07:13.266Z,964.83
2019-05-23T09:09:43.028Z,929.00
2019-05-23T09:12:12.159Z,958.00
2019-05-23T09:14:41.217Z,964.32
2019-05-23T09:17:10.814Z,985.92
2019-05-23T09:19:40.253Z,938.23
2019-05-23T09:22:09.360Z,948.67
2019-05-23T09:24:39.428Z,948.12
2019-05-23T09:27:08.472Z,939.83
2019-05-23T09:29:37.733Z,920.92
2019-05-23T09:32:06.977Z,939.38
2019-05-23T09:34:36.144Z,938.30
2019-05-23T09:37:08.124Z,961.88
2019-05-23T09:39:37.740Z,948.15
2019-05-23T09:42:06.778Z,946.63
2019-05-23T09:44:36.924Z,891.98
2019-05-23T09:47:05.991Z,916.17
2019-05-23T09:49:35.105Z,920.48
2019-05-23T09:52:04.930Z,994.80
2019-05-23T09:54:36.207Z,942.85
2019-05-23T09:57:06.027Z,1013.55
2019-05-23T09:59:35.152Z,1015.70
2019-05-23T10:02:04.273Z,1003.27
2019-05-23T10:04:33.512Z,1033.13
2019-05-23T10:07:02.572Z,937.30
2019-05-23T10:09:31.621Z,943.73
2019-05-23T10:12:00.651Z,972.08
2019-05-23T10:14:31.625Z,1123.10
2019-05-23T10:17:00.684Z,1061.58
2019-05-23T10:19:29.815Z,970.83
2019-05-23T10:21:59.121Z,950.68
2019-05-23T10:24:28.225Z,992.33
2019-05-23T10:26:57.315Z,975.13
2019-05-23T10:29:26.398Z,999.02
2019-05-23T10:31:57.180Z,898.53
2019-05-23T10:34:26.500Z,1097.63
2019-05-23T10:36:55.548Z,949.58
2019-05-23T10:39:24.620Z,932.65
2019-05-23T10:41:53.652Z,945.88
2019-05-23T10:44:22.722Z,922.85
2019-05-23T10:46:51.829Z,969.30
2019-05-23T10:49:20.983Z,924.42
2019-05-23T10:51:50.025Z,937.90
2019-05-23T10:54:19.444Z,964.67
2019-05-23T10:56:48.615Z,955.90
2019-05-23T10:59:17.849Z,943.75
2019-05-23T11:01:46.987Z,934.52
2019-05-23T11:04:16.093Z,897.12
2019-05-23T11:06:45.297Z,955.90
2019-05-23T11:09:39.525Z,894.70
2019-05-23T11:12:09.117Z,917.75
2019-05-23T11:14:38.496Z,922.23
2019-05-23T11:17:26.872Z,915.55
2019-05-23T11:19:56.163Z,930.08
2019-05-23T11:22:25.245Z,913.95
2019-05-23T11:24:55.988Z,950.30
2019-05-23T11:27:25.497Z,951.20
2019-05-23T11:29:54.723Z,974.55
2019-05-23T11:32:23.747Z,933.27
2019-05-23T11:34:52.903Z,888.75
2019-05-23T11:37:22.170Z,1026.03
2019-05-23T11:39:51.659Z,919.77
2019-05-23T11:42:20.817Z,891.55
2019-05-23T11:44:49.922Z,940.32
2019-05-23T11:47:19.046Z,941.35
2019-05-23T11:49:48.092Z,893.62
2019-05-23T11:52:17.491Z,927.67
2019-05-23T11:54:46.754Z,943.48
2019-05-23T11:57:15.854Z,949.60
2019-05-23T11:59:45.047Z,986.43
2019-05-23T12:02:15.795Z,925.70
2019-05-23T12:04:45.130Z,898.95
2019-05-23T12:07:15.868Z,1016.10
2019-05-23T12:09:44.945Z,914.27
2019-05-23T12:12:14.014Z,1020.10
2019-05-23T12:14:43.180Z,931.80
2019-05-23T12:17:13.005Z,1019.77
2019-05-23T12:19:42.418Z,925.70
2019-05-23T12:22:12.515Z,991.77
2019-05-23T12:24:41.628Z,927.90
2019-05-23T12:27:11.908Z,993.05
2019-05-23T12:29:40.956Z,930.72
2019-05-23T12:32:11.633Z,953.67
2019-05-23T12:34:40.705Z,1032.42
2019-05-23T12:37:19.880Z,991.90
2019-05-23T12:39:41.076Z,918.90
2019-05-23T12:42:10.156Z,1062.98
2019-05-23T12:44:39.171Z,940.45
2019-05-23T12:47:10.048Z,984.73
2019-05-23T12:49:41.768Z,962.12
2019-05-23T12:52:11.332Z,958.73
2019-05-23T12:54:40.583Z,896.35
2019-05-23T12:57:09.993Z,1081.90
2019-05-23T12:59:39.427Z,967.50
2019-05-23T13:02:10.103Z,925.80
2019-05-23T13:04:39.203Z,924.75
2019-05-23T13:07:09.079Z,957.30
2019-05-23T13:09:38.624Z,940.17
2019-05-23T13:12:07.806Z,1390.85
2019-05-23T13:14:37.348Z,926.65
2019-05-23T13:17:06.452Z,938.60
2019-05-23T13:19:35.430Z,919.45
2019-05-23T13:22:05.541Z,949.05
2019-05-23T13:24:51.368Z,943.50
2019-05-23T13:27:05.504Z,1094.20
2019-05-23T13:29:34.701Z,1011.80
2019-05-23T13:32:04.229Z,934.20
2019-05-23T13:34:33.344Z,936.52
2019-05-23T13:37:03.696Z,988.95
2019-05-23T13:39:33.393Z,992.02
2019-05-23T13:42:02.633Z,976.98
2019-05-23T13:44:35.018Z,965.77
2019-05-23T13:47:03.269Z,950.65
2019-05-23T13:49:32.979Z,1041.90
2019-05-23T13:52:02.259Z,959.02
2019-05-23T13:54:35.885Z,1024.90
2019-05-23T13:57:03.152Z,976.50
2019-05-23T13:59:32.371Z,955.40
2019-05-23T14:02:01.703Z,925.42
2019-05-23T14:04:30.795Z,1031.63
2019-05-23T14:07:00.971Z,915.90
2019-05-23T14:09:30.862Z,992.20
2019-05-23T14:12:19.965Z,952.25
2019-05-23T14:14:31.873Z,946.27
2019-05-23T14:17:02.615Z,951.70
2019-05-23T14:19:31.835Z,933.87
2019-05-23T14:22:01.151Z,943.10
2019-05-23T14:24:30.261Z,937.70
2019-05-23T14:27:01.015Z,994.10
2019-05-23T14:29:30.447Z,974.55
2019-05-23T14:32:01.114Z,960.55
2019-05-23T14:34:30.389Z,918.15
2019-05-23T14:37:01.198Z,922.98
2019-05-23T14:39:32.307Z,926.20
2019-05-23T14:42:03.040Z,932.65
2019-05-23T14:44:32.228Z,1092.68
2019-05-23T14:47:03.078Z,1053.45
2019-05-23T14:49:34.205Z,966.25
2019-05-23T14:52:05.141Z,1142.47
2019-05-23T14:54:36.444Z,1021.10
2019-05-23T14:57:06.412Z,945.52
2019-05-23T14:59:36.367Z,1059.73
2019-05-23T15:02:07.012Z,971.42
2019-05-23T15:04:36.104Z,956.08
2019-05-23T15:07:05.133Z,1003.05
2019-05-23T15:09:34.735Z,976.73
2019-05-23T15:12:05.096Z,980.78
2019-05-23T15:14:34.384Z,1081.63
2019-05-23T15:17:04.383Z,1050.50
2019-05-23T15:19:42.089Z,976.55
2019-05-23T15:22:04.409Z,1062.58
2019-05-23T15:24:34.696Z,958.45
2019-05-23T15:27:04.596Z,931.87
2019-05-23T15:29:33.653Z,1043.83
2019-05-23T15:32:03.408Z,1060.55
2019-05-23T15:34:35.101Z,1068.83
2019-05-23T15:37:03.911Z,998.55
2019-05-23T15:39:33.970Z,890.00
2019-05-23T15:42:03.056Z,997.93
2019-05-23T15:44:32.155Z,911.50
2019-05-23T15:47:01.297Z,1034.98
2019-05-23T15:49:31.348Z,967.98
2019-05-23T15:52:02.160Z,914.52
2019-05-23T15:54:34.204Z,908.45
2019-05-23T15:57:04.982Z,1080.00
2019-05-23T15:59:35.667Z,944.92
2019-05-23T16:02:06.394Z,872.25
2019-05-23T16:04:35.821Z,888.57
2019-05-23T16:07:05.304Z,970.35
2019-05-23T16:09:34.729Z,930.42
2019-05-23T16:12:04.622Z,941.53
2019-05-23T16:14:35.282Z,912.35
2019-05-23T16:17:06.226Z,908.15
2019-05-23T16:19:35.900Z,910.05
2019-05-23T16:22:05.109Z,886.12
2019-05-23T16:24:34.827Z,954.18
2019-05-23T16:27:05.691Z,925.98
2019-05-23T16:29:35.775Z,1030.20
2019-05-23T16:32:05.061Z,946.48
2019-05-23T16:34:46.545Z,929.37
2019-05-23T16:37:16.320Z,918.35
2019-05-23T16:39:48.231Z,1017.43
2019-05-23T16:42:17.747Z,1168.90
2019-05-23T16:44:47.062Z,939.83
2019-05-23T16:47:17.473Z,948.65
2019-05-23T16:49:46.712Z,1004.05
2019-05-23T16:52:15.844Z,967.55
2019-05-23T16:54:46.721Z,932.53
2019-05-23T16:57:17.994Z,928.52
2019-05-23T16:59:48.708Z,930.25
2019-05-23T17:02:19.463Z,937.80
2019-05-23T17:04:59.459Z,898.93
2019-05-23T17:07:22.966Z,941.62
2019-05-23T17:10:09.014Z,908.30
2019-05-23T17:12:36.638Z,960.15
2019-05-23T17:15:08.018Z,895.92
2019-05-23T17:17:57.462Z,924.02
2019-05-23T17:20:19.779Z,970.88
2019-05-23T17:22:43.611Z,910.97
2019-05-23T17:25:14.424Z,963.70
2019-05-23T17:27:45.281Z,949.15
2019-05-23T17:30:24.139Z,957.30
2019-05-23T17:32:54.069Z,994.25
2019-05-23T17:35:23.415Z,956.50
2019-05-23T17:37:52.565Z,1018.83
2019-05-23T17:40:25.342Z,955.15
2019-05-23T17:42:52.966Z,995.03
2019-05-23T17:45:22.256Z,945.23
2019-05-23T17:47:52.062Z,981.30
2019-05-23T17:50:21.397Z,943.10
2019-05-23T17:52:51.282Z,983.73
2019-05-23T17:55:20.307Z,982.92
2019-05-23T17:57:49.408Z,971.42
2019-05-23T18:00:20.360Z,986.05
2019-05-23T18:02:49.776Z,978.67
2019-05-23T18:05:19.915Z,978.55
2019-05-23T18:07:49.570Z,990.58
2019-05-23T18:10:18.660Z,1022.42
2019-05-23T18:12:47.899Z,966.62
2019-05-23T18:15:18.002Z,983.77
2019-05-23T18:17:47.069Z,982.67
2019-05-23T18:20:16.184Z,1008.25
2019-05-23T18:22:47.326Z,988.87
2019-05-23T18:25:17.774Z,1020.42
2019-05-23T18:27:47.380Z,1013.17
2019-05-23T18:30:18.238Z,973.75
2019-05-23T18:32:48.592Z,1054.68
2019-05-23T18:35:19.921Z,1088.28
2019-05-23T18:37:49.221Z,1063.08
2019-05-23T18:40:18.695Z,1125.85
2019-05-23T18:42:47.976Z,1102.23
2019-05-23T18:45:17.849Z,1087.03
2019-05-23T18:47:47.120Z,1115.05
2019-05-23T18:50:16.524Z,1140.65
2019-05-23T18:52:46.347Z,1149.88
2019-05-23T18:55:17.431Z,1156.70
2019-05-23T18:57:47.201Z,1154.17
2019-05-23T19:00:16.705Z,1157.53
2019-05-23T19:02:46.190Z,1199.95
2019-05-23T19:05:16.219Z,1197.70
2019-05-23T19:07:46.003Z,1218.05
2019-05-23T19:10:15.770Z,1210.18
2019-05-23T19:12:45.124Z,1220.60
2019-05-23T19:15:14.657Z,1219.35
2019-05-23T19:17:44.229Z,1208.80
2019-05-23T19:20:13.392Z,1216.35
2019-05-23T19:22:43.099Z,1200.05
2019-05-23T19:25:12.901Z,1211.48
2019-05-23T19:27:42.485Z,1232.83
2019-05-23T19:30:11.673Z,1218.40
2019-05-23T19:32:41.191Z,1239.47
2019-05-23T19:35:36.897Z,1203.35
2019-05-23T19:38:06.881Z,1238.75
2019-05-23T19:40:36.481Z,1228.95
2019-05-23T19:43:06.777Z,1218.90
2019-05-23T19:45:36.039Z,1217.73
2019-05-23T19:48:05.440Z,1213.03
2019-05-23T19:50:35.765Z,1196.33
2019-05-23T19:53:05.848Z,1205.53
2019-05-23T19:55:39.603Z,1203.13
2019-05-23T19:58:08.019Z,1228.05
2019-05-23T20:00:37.741Z,1211.33
2019-05-23T20:03:08.093Z,1213.63
2019-05-23T20:05:39.793Z,1244.07
2019-05-23T20:08:10.002Z,1228.17
2019-05-23T20:10:40.070Z,1218.27
2019-05-23T20:13:09.245Z,1198.13
2019-05-23T20:15:39.803Z,1209.33
2019-05-23T20:18:09.935Z,1209.07
2019-05-23T20:20:39.965Z,1192.80
2019-05-23T20:23:10.025Z,1216.53
2019-05-23T20:25:39.072Z,1201.43
2019-05-23T20:28:08.594Z,1239.73
2019-05-23T20:30:40.069Z,1192.03
2019-05-23T20:33:09.100Z,1192.40
2019-05-23T20:35:38.147Z,1134.03
2019-05-23T20:38:08.050Z,1176.30
2019-05-23T20:40:38.722Z,1176.37
2019-05-23T20:43:07.823Z,1152.33
2019-05-23T20:45:37.580Z,1215.63
2019-05-23T20:48:08.069Z,1173.47
2019-05-23T20:50:39.498Z,1162.27
2019-05-23T20:53:09.044Z,1161.97
2019-05-23T20:55:38.354Z,1178.43
2019-05-23T20:58:07.554Z,1111.87
2019-05-23T21:00:38.748Z,1110.30
2019-05-23T21:03:07.902Z,1106.20
2019-05-23T21:05:37.555Z,1110.47
2019-05-23T21:08:06.952Z,1130.73
2019-05-23T21:10:37.771Z,1120.30
2019-05-23T21:13:07.690Z,1133.97
2019-05-23T21:15:36.799Z,1138.67
2019-05-23T21:18:07.573Z,1142.23
2019-05-23T21:20:36.675Z,1105.60
2019-05-23T21:23:05.836Z,1109.80
2019-05-23T21:25:36.482Z,1066.17
2019-05-23T21:28:06.451Z,1067.20
2019-05-23T21:30:35.716Z,1057.03
2019-05-23T21:33:05.597Z,1084.03
2019-05-23T21:35:35.032Z,1072.13
2019-05-23T21:38:04.194Z,1089.63
2019-05-23T21:40:35.178Z,1078.57
2019-05-23T21:43:04.690Z,1074.73
2019-05-23T21:45:34.128Z,1079.83
2019-05-23T21:48:03.569Z,1056.80
2019-05-23T21:50:32.793Z,1057.90
2019-05-23T21:53:02.932Z,1077.87
2019-05-23T21:55:34.246Z,1077.50
2019-05-23T21:58:03.779Z,1092.70
2019-05-23T22:03:29.752Z,1027.03
2019-05-23T22:05:59.653Z,1047.57
2019-05-23T22:08:28.823Z,1059.57
2019-05-23T22:10:58.269Z,1041.47
2019-05-23T22:13:27.309Z,1084.37
2019-05-23T22:15:58.174Z,1058.43
2019-05-23T22:18:27.309Z,1072.13
2019-05-23T22:20:56.915Z,1067.93
2019-05-23T22:23:26.168Z,1038.97
2019-05-23T22:25:55.303Z,1037.77
2019-05-23T22:28:24.974Z,1030.67
2019-05-23T22:30:54.020Z,1032.87
2019-05-23T22:33:24.738Z,1043.73
2019-05-23T22:35:54.297Z,1023.77
2019-05-23T22:38:23.444Z,1049.57
2019-05-23T22:40:52.524Z,1045.87
2019-05-23T22:43:21.691Z,1052.50
2019-05-23T22:45:50.891Z,1061.13
2019-05-23T22:48:20.171Z,1032.33
2019-05-23T22:50:49.192Z,1038.73
2019-05-23T22:53:18.285Z,1056.87
2019-05-23T22:55:47.329Z,1040.47
2019-05-23T22:58:16.475Z,1037.90
2019-05-23T23:00:47.111Z,1049.57
2019-05-23T23:03:17.825Z,996.13
2019-05-23T23:05:46.872Z,1019.27
2019-05-23T23:08:16.659Z,1027.67
2019-05-23T23:10:45.753Z,1045.50
2019-05-23T23:13:15.403Z,1013.97
2019-05-23T23:15:45.047Z,1022.93
2019-05-23T23:18:14.278Z,1051.20
2019-05-23T23:20:45.915Z,1045.53
2019-05-23T23:23:14.444Z,1039.97
2019-05-23T23:25:43.517Z,1044.87
2019-05-23T23:28:12.620Z,1014.67
2019-05-23T23:30:43.943Z,1011.37
2019-05-23T23:33:14.135Z,1034.20
2019-05-23T23:35:43.252Z,1078.20
2019-05-23T23:38:12.339Z,1034.00
2019-05-23T23:40:41.454Z,1061.07
2019-05-23T23:43:10.556Z,1049.53
2019-05-23T23:45:41.864Z,1061.60
2019-05-23T23:48:12.712Z,1033.37
2019-05-23T23:50:43.418Z,1048.57
2019-05-23T23:53:14.516Z,1049.97
2019-05-23T23:55:45.238Z,1047.40
2019-05-23T23:58:14.073Z,1036.30
